sensor_id;sensor_type;location;lat;lon;timestamp;pressure;altitude;pressure_sealevel;temperature;humidity
8162;BME280;16778;48.154;15.094;2024-01-30T00:02:13;100538.69;;;-1.87;100.00
8162;BME280;16778;48.154;15.094;2024-01-30T00:04:38;100539.00;;;-1.92;100.00
8162;BME280;16778;48.154;15.094;2024-01-30T00:07:04;100535.66;;;-1.95;100.00
8162;BME280;16778;48.154;15.094;2024-01-30T00:09:30;100535.56;;;-1.94;100.00
8162;BME280;16778;48.154;15.094;2024-01-30T00:11:56;100534.59;;;-1.93;100.00
8162;BME280;16778;48.154;15.094;2024-01-30T00:14:22;100531.28;;;-1.96;100.00
8162;BME280;16778;48.154;15.094;2024-01-30T00:16:48;100539.56;;;-2.01;100.00
8162;BME280;16778;48.154;15.094;2024-01-30T00:19:14;100539.75;;;-2.04;100.00
8162;BME280;16778;48.154;15.094;2024-01-30T00:21:40;100538.97;;;-2.06;100.00
8162;BME280;16778;48.154;15.094;2024-01-30T00:24:06;100540.91;;;-2.08;100.00
8162;BME280;16778;48.154;15.094;2024-01-30T00:26:32;100546.78;;;-2.17;100.00
8162;BME280;16778;48.154;15.094;2024-01-30T00:28:58;100546.97;;;-2.20;100.00
8162;BME280;16778;48.154;15.094;2024-01-30T00:31:24;100536.50;;;-2.23;100.00
8162;BME280;16778;48.154;15.094;2024-01-30T00:33:50;100536.50;;;-2.23;100.00
8162;BME280;16778;48.154;15.094;2024-01-30T00:36:16;100537.25;;;-2.21;100.00
8162;BME280;16778;48.154;15.094;2024-01-30T00:38:42;100531.84;;;-2.19;100.00
8162;BME280;16778;48.154;15.094;2024-01-30T00:41:11;100530.31;;;-2.23;100.00
8162;BME280;16778;48.154;15.094;2024-01-30T00:43:37;100537.34;;;-2.22;100.00
8162;BME280;16778;48.154;15.094;2024-01-30T00:46:03;100533.28;;;-2.14;100.00
8162;BME280;16778;48.154;15.094;2024-01-30T00:48:29;100542.00;;;-2.12;100.00
8162;BME280;16778;48.154;15.094;2024-01-30T00:50:54;100531.75;;;-2.04;100.00
8162;BME280;16778;48.154;15.094;2024-01-30T00:53:20;100532.25;;;-1.97;100.00
8162;BME280;16778;48.154;15.094;2024-01-30T00:55:46;100535.84;;;-1.98;100.00
8162;BME280;16778;48.154;15.094;2024-01-30T00:58:12;100536.03;;;-2.01;100.00
8162;BME280;16778;48.154;15.094;2024-01-30T01:00:39;100525.69;;;-2.06;100.00
8162;BME280;16778;48.154;15.094;2024-01-30T01:03:04;100530.53;;;-1.98;100.00
8162;BME280;16778;48.154;15.094;2024-01-30T01:05:30;100521.97;;;-2.03;100.00
8162;BME280;16778;48.154;15.094;2024-01-30T01:07:56;100524.44;;;-2.00;100.00
8162;BME280;16778;48.154;15.094;2024-01-30T01:10:22;100521.97;;;-2.03;100.00
8162;BME280;16778;48.154;15.094;2024-01-30T01:12:48;100528.34;;;-2.06;100.00
8162;BME280;16778;48.154;15.094;2024-01-30T01:15:14;100527.66;;;-2.09;100.00
8162;BME280;16778;48.154;15.094;2024-01-30T01:17:40;100528.72;;;-2.12;100.00
8162;BME280;16778;48.154;15.094;2024-01-30T01:20:07;100528.03;;;-2.15;100.00
8162;BME280;16778;48.154;15.094;2024-01-30T01:22:34;100521.28;;;-2.21;100.00
8162;BME280;16778;48.154;15.094;2024-01-30T01:25:01;100526.91;;;-2.25;100.00
8162;BME280;16778;48.154;15.094;2024-01-30T01:27:27;100516.16;;;-2.24;100.00
8162;BME280;16778;48.154;15.094;2024-01-30T01:29:53;100520.22;;;-2.18;100.00
8162;BME280;16778;48.154;15.094;2024-01-30T01:32:19;100519.13;;;-2.14;100.00
8162;BME280;16778;48.154;15.094;2024-01-30T01:34:45;100517.69;;;-2.06;100.00
8162;BME280;16778;48.154;15.094;2024-01-30T01:37:11;100516.53;;;-2.02;100.00
8162;BME280;16778;48.154;15.094;2024-01-30T01:39:37;100515.22;;;-2.09;100.00
8162;BME280;16778;48.154;15.094;2024-01-30T01:42:03;100514.34;;;-2.09;100.00
8162;BME280;16778;48.154;15.094;2024-01-30T01:44:29;100516.47;;;-2.00;100.00
8162;BME280;16778;48.154;15.094;2024-01-30T01:46:55;100504.00;;;-2.00;100.00
8162;BME280;16778;48.154;15.094;2024-01-30T01:49:24;100497.53;;;-1.96;100.00
8162;BME280;16778;48.154;15.094;2024-01-30T01:51:55;100494.84;;;-1.96;100.00
8162;BME280;16778;48.154;15.094;2024-01-30T01:54:23;100497.44;;;-1.94;100.00
8162;BME280;16778;48.154;15.094;2024-01-30T01:56:51;100493.25;;;-1.98;100.00
8162;BME280;16778;48.154;15.094;2024-01-30T01:59:18;100504.09;;;-2.01;100.00
8162;BME280;16778;48.154;15.094;2024-01-30T02:01:45;100503.91;;;-1.98;100.00
8162;BME280;16778;48.154;15.094;2024-01-30T02:04:15;100504.56;;;-1.95;100.00
8162;BME280;16778;48.154;15.094;2024-01-30T02:06:42;100506.66;;;-2.00;100.00
8162;BME280;16778;48.154;15.094;2024-01-30T02:09:08;100497.25;;;-2.05;100.00
8162;BME280;16778;48.154;15.094;2024-01-30T02:11:34;100501.59;;;-2.18;100.00
8162;BME280;16778;48.154;15.094;2024-01-30T02:14:04;100500.84;;;-2.20;100.00
8162;BME280;16778;48.154;15.094;2024-01-30T02:16:32;100492.75;;;-2.19;100.00
8162;BME280;16778;48.154;15.094;2024-01-30T02:18:58;100491.25;;;-2.23;100.00
8162;BME280;16778;48.154;15.094;2024-01-30T02:21:24;100498.56;;;-2.26;100.00
8162;BME280;16778;48.154;15.094;2024-01-30T02:23:51;100498.28;;;-2.36;100.00
8162;BME280;16778;48.154;15.094;2024-01-30T02:26:17;100495.88;;;-2.41;100.00
8162;BME280;16778;48.154;15.094;2024-01-30T02:28:43;100503.47;;;-2.49;100.00
8162;BME280;16778;48.154;15.094;2024-01-30T02:31:09;100499.56;;;-2.57;100.00
8162;BME280;16778;48.154;15.094;2024-01-30T02:33:35;100501.72;;;-2.64;100.00
8162;BME280;16778;48.154;15.094;2024-01-30T02:36:01;100506.28;;;-2.66;100.00
8162;BME280;16778;48.154;15.094;2024-01-30T02:38:27;100501.94;;;-2.67;100.00
8162;BME280;16778;48.154;15.094;2024-01-30T02:40:53;100500.13;;;-2.66;100.00
8162;BME280;16778;48.154;15.094;2024-01-30T02:43:19;100502.94;;;-2.69;100.00
8162;BME280;16778;48.154;15.094;2024-01-30T02:45:44;100498.59;;;-2.70;100.00
8162;BME280;16778;48.154;15.094;2024-01-30T02:48:10;100500.69;;;-2.75;100.00
8162;BME280;16778;48.154;15.094;2024-01-30T02:50:36;100499.31;;;-2.82;100.00
8162;BME280;16778;48.154;15.094;2024-01-30T02:53:02;100499.50;;;-2.85;100.00
8162;BME280;16778;48.154;15.094;2024-01-30T02:55:28;100502.44;;;-2.90;100.00
8162;BME280;16778;48.154;15.094;2024-01-30T02:57:54;100498.91;;;-2.90;100.00
8162;BME280;16778;48.154;15.094;2024-01-30T03:00:20;100500.72;;;-2.91;100.00
8162;BME280;16778;48.154;15.094;2024-01-30T03:02:46;100499.19;;;-2.95;100.00
8162;BME280;16778;48.154;15.094;2024-01-30T03:05:12;100506.38;;;-2.97;100.00
8162;BME280;16778;48.154;15.094;2024-01-30T03:07:38;100502.91;;;-2.98;100.00
8162;BME280;16778;48.154;15.094;2024-01-30T03:10:07;100504.69;;;-2.98;100.00
8162;BME280;16778;48.154;15.094;2024-01-30T03:12:33;100508.28;;;-2.99;100.00
8162;BME280;16778;48.154;15.094;2024-01-30T03:14:59;100505.72;;;-3.01;100.00
8162;BME280;16778;48.154;15.094;2024-01-30T03:17:25;100505.91;;;-3.04;100.00
8162;BME280;16778;48.154;15.094;2024-01-30T03:19:51;100500.41;;;-3.01;100.00
8162;BME280;16778;48.154;15.094;2024-01-30T03:22:17;100502.22;;;-3.01;100.00
8162;BME280;16778;48.154;15.094;2024-01-30T03:24:43;100503.91;;;-3.00;100.00
8162;BME280;16778;48.154;15.094;2024-01-30T03:27:09;100504.88;;;-3.01;100.00
8162;BME280;16778;48.154;15.094;2024-01-30T03:29:35;100501.34;;;-3.02;100.00
8162;BME280;16778;48.154;15.094;2024-01-30T03:32:01;100503.06;;;-3.01;100.00
8162;BME280;16778;48.154;15.094;2024-01-30T03:34:26;100504.88;;;-3.01;100.00
8162;BME280;16778;48.154;15.094;2024-01-30T03:36:52;100503.13;;;-3.02;100.00
8162;BME280;16778;48.154;15.094;2024-01-30T03:39:18;100505.72;;;-3.01;100.00
8162;BME280;16778;48.154;15.094;2024-01-30T03:41:44;100503.81;;;-2.99;100.00
8162;BME280;16778;48.154;15.094;2024-01-30T03:44:10;100503.06;;;-3.01;100.00
8162;BME280;16778;48.154;15.094;2024-01-30T03:46:36;100502.22;;;-3.01;100.00
8162;BME280;16778;48.154;15.094;2024-01-30T03:49:02;100504.00;;;-3.02;100.00
8162;BME280;16778;48.154;15.094;2024-01-30T03:51:28;100502.44;;;-3.06;100.00
8162;BME280;16778;48.154;15.094;2024-01-30T03:53:54;100501.25;;;-3.00;100.00
8162;BME280;16778;48.154;15.094;2024-01-30T03:56:22;100501.28;;;-2.86;100.00
8162;BME280;16778;48.154;15.094;2024-01-30T03:58:50;100497.00;;;-2.88;100.00
8162;BME280;16778;48.154;15.094;2024-01-30T04:01:15;100502.63;;;-2.93;100.00
8162;BME280;16778;48.154;15.094;2024-01-30T04:03:41;100500.59;;;-3.04;100.00
8162;BME280;16778;48.154;15.094;2024-01-30T04:06:09;100500.75;;;-3.07;100.00
8162;BME280;16778;48.154;15.094;2024-01-30T04:08:35;100497.31;;;-3.09;100.00
8162;BME280;16778;48.154;15.094;2024-01-30T04:11:07;100503.50;;;-3.08;100.00
8162;BME280;16778;48.154;15.094;2024-01-30T04:13:33;100502.56;;;-3.07;100.00
8162;BME280;16778;48.154;15.094;2024-01-30T04:16:03;100500.06;;;-3.10;100.00
8162;BME280;16778;48.154;15.094;2024-01-30T04:18:29;100504.75;;;-3.00;100.00
8162;BME280;16778;48.154;15.094;2024-01-30T04:20:55;100520.72;;;-3.00;100.00
8162;BME280;16778;48.154;15.094;2024-01-30T04:23:21;100518.06;;;-3.00;100.00
8162;BME280;16778;48.154;15.094;2024-01-30T04:25:47;100523.72;;;-3.06;100.00
8162;BME280;16778;48.154;15.094;2024-01-30T04:28:13;100517.75;;;-3.09;100.00
8162;BME280;16778;48.154;15.094;2024-01-30T04:30:39;100530.25;;;-3.11;100.00
8162;BME280;16778;48.154;15.094;2024-01-30T04:33:05;100525.78;;;-3.11;100.00
8162;BME280;16778;48.154;15.094;2024-01-30T04:35:31;100528.44;;;-3.11;100.00
8162;BME280;16778;48.154;15.094;2024-01-30T04:37:57;100523.13;;;-3.11;100.00
8162;BME280;16778;48.154;15.094;2024-01-30T04:40:23;100528.44;;;-3.11;100.00
8162;BME280;16778;48.154;15.094;2024-01-30T04:42:49;100525.72;;;-3.09;100.00
8162;BME280;16778;48.154;15.094;2024-01-30T04:45:15;100535.56;;;-3.11;100.00
8162;BME280;16778;48.154;15.094;2024-01-30T04:47:41;100544.50;;;-3.12;100.00
8162;BME280;16778;48.154;15.094;2024-01-30T04:50:08;100539.25;;;-3.14;100.00
8162;BME280;16778;48.154;15.094;2024-01-30T04:52:34;100547.22;;;-3.14;100.00
8162;BME280;16778;48.154;15.094;2024-01-30T04:55:00;100545.53;;;-3.15;100.00
8162;BME280;16778;48.154;15.094;2024-01-30T04:57:26;100550.03;;;-3.17;100.00
8162;BME280;16778;48.154;15.094;2024-01-30T04:59:52;100544.84;;;-3.18;100.00
8162;BME280;16778;48.154;15.094;2024-01-30T05:02:18;100555.53;;;-3.20;100.00
8162;BME280;16778;48.154;15.094;2024-01-30T05:04:44;100552.22;;;-3.23;100.00
8162;BME280;16778;48.154;15.094;2024-01-30T05:07:09;100558.38;;;-3.23;100.00
8162;BME280;16778;48.154;15.094;2024-01-30T05:09:35;100553.25;;;-3.26;100.00
8162;BME280;16778;48.154;15.094;2024-01-30T05:12:01;100553.31;;;-3.27;100.00
8162;BME280;16778;48.154;15.094;2024-01-30T05:14:27;100559.50;;;-3.27;100.00
8162;BME280;16778;48.154;15.094;2024-01-30T05:16:53;100561.28;;;-3.27;100.00
8162;BME280;16778;48.154;15.094;2024-01-30T05:19:19;100551.59;;;-3.28;100.00
8162;BME280;16778;48.154;15.094;2024-01-30T05:21:47;100555.38;;;-3.32;100.00
8162;BME280;16778;48.154;15.094;2024-01-30T05:24:12;100556.06;;;-3.29;100.00
8162;BME280;16778;48.154;15.094;2024-01-30T05:26:38;100559.50;;;-3.27;100.00
8162;BME280;16778;48.154;15.094;2024-01-30T05:29:06;100564.38;;;-3.19;100.00
8162;BME280;16778;48.154;15.094;2024-01-30T05:31:32;100565.75;;;-3.12;100.00
8162;BME280;16778;48.154;15.094;2024-01-30T05:33:58;100556.88;;;-2.97;100.00
8162;BME280;16778;48.154;15.094;2024-01-30T05:36:24;100556.28;;;-2.86;100.00
8162;BME280;16778;48.154;15.094;2024-01-30T05:38:49;100572.19;;;-2.71;100.00
8162;BME280;16778;48.154;15.094;2024-01-30T05:41:15;100567.28;;;-2.63;100.00
8162;BME280;16778;48.154;15.094;2024-01-30T05:43:42;100581.66;;;-2.51;100.00
8162;BME280;16778;48.154;15.094;2024-01-30T05:46:08;100569.44;;;-2.40;100.00
8162;BME280;16778;48.154;15.094;2024-01-30T05:48:34;100575.25;;;-2.33;100.00
8162;BME280;16778;48.154;15.094;2024-01-30T05:51:01;100568.72;;;-2.27;100.00
8162;BME280;16778;48.154;15.094;2024-01-30T05:53:28;100574.44;;;-2.19;100.00
8162;BME280;16778;48.154;15.094;2024-01-30T05:55:54;100571.28;;;-2.12;100.00
8162;BME280;16778;48.154;15.094;2024-01-30T05:58:19;100570.81;;;-2.04;100.00
8162;BME280;16778;48.154;15.094;2024-01-30T06:00:45;100573.88;;;-1.96;100.00
8162;BME280;16778;48.154;15.094;2024-01-30T06:03:11;100574.34;;;-1.90;100.00
8162;BME280;16778;48.154;15.094;2024-01-30T06:05:37;100562.38;;;-1.83;100.00
8162;BME280;16778;48.154;15.094;2024-01-30T06:08:03;100576.09;;;-1.74;100.00
8162;BME280;16778;48.154;15.094;2024-01-30T06:10:29;100572.19;;;-1.69;100.00
8162;BME280;16778;48.154;15.094;2024-01-30T06:12:54;100573.13;;;-1.70;100.00
8162;BME280;16778;48.154;15.094;2024-01-30T06:15:20;100577.41;;;-1.67;100.00
8162;BME280;16778;48.154;15.094;2024-01-30T06:17:46;100575.72;;;-1.68;100.00
8162;BME280;16778;48.154;15.094;2024-01-30T06:20:12;100579.19;;;-1.68;100.00
8162;BME280;16778;48.154;15.094;2024-01-30T06:22:37;100574.53;;;-1.64;100.00
8162;BME280;16778;48.154;15.094;2024-01-30T06:25:04;100567.31;;;-1.62;100.00
8162;BME280;16778;48.154;15.094;2024-01-30T06:27:30;100578.63;;;-1.59;100.00
8162;BME280;16778;48.154;15.094;2024-01-30T06:29:55;100573.13;;;-1.56;100.00
8162;BME280;16778;48.154;15.094;2024-01-30T06:32:21;100574.66;;;-1.52;100.00
8162;BME280;16778;48.154;15.094;2024-01-30T06:34:47;100575.00;;;-1.44;100.00
8162;BME280;16778;48.154;15.094;2024-01-30T06:37:13;100575.47;;;-1.37;100.00
8162;BME280;16778;48.154;15.094;2024-01-30T06:39:39;100586.59;;;-1.31;100.00
8162;BME280;16778;48.154;15.094;2024-01-30T06:42:05;100590.59;;;-1.24;100.00
8162;BME280;16778;48.154;15.094;2024-01-30T06:44:30;100587.72;;;-1.21;100.00
8162;BME280;16778;48.154;15.094;2024-01-30T06:46:56;100592.00;;;-1.18;100.00
8162;BME280;16778;48.154;15.094;2024-01-30T06:49:22;100592.66;;;-1.14;100.00
8162;BME280;16778;48.154;15.094;2024-01-30T06:51:48;100600.44;;;-1.11;100.00
8162;BME280;16778;48.154;15.094;2024-01-30T06:54:14;100592.06;;;-1.05;100.00
8162;BME280;16778;48.154;15.094;2024-01-30T06:56:39;100603.19;;;-0.99;100.00
8162;BME280;16778;48.154;15.094;2024-01-30T06:59:05;100604.63;;;-0.93;100.00
8162;BME280;16778;48.154;15.094;2024-01-30T07:01:31;100605.81;;;-0.85;100.00
8162;BME280;16778;48.154;15.094;2024-01-30T07:03:58;100605.19;;;-0.76;100.00
8162;BME280;16778;48.154;15.094;2024-01-30T07:06:24;100599.66;;;-0.73;100.00
8162;BME280;16778;48.154;15.094;2024-01-30T07:08:50;100605.13;;;-0.74;100.00
8162;BME280;16778;48.154;15.094;2024-01-30T07:11:20;100614.38;;;-0.80;100.00
8162;BME280;16778;48.154;15.094;2024-01-30T07:13:48;100611.13;;;-0.71;100.00
8162;BME280;16778;48.154;15.094;2024-01-30T07:16:15;100615.53;;;-0.57;100.00
8162;BME280;16778;48.154;15.094;2024-01-30T07:18:41;100612.81;;;-0.43;100.00
8162;BME280;16778;48.154;15.094;2024-01-30T07:21:07;100624.78;;;-0.36;100.00
8162;BME280;16778;48.154;15.094;2024-01-30T07:23:33;100620.84;;;-0.30;100.00
8162;BME280;16778;48.154;15.094;2024-01-30T07:26:03;100625.47;;;-0.20;100.00
8162;BME280;16778;48.154;15.094;2024-01-30T07:28:29;100628.03;;;-0.18;100.00
8162;BME280;16778;48.154;15.094;2024-01-30T07:30:56;100630.81;;;-0.20;100.00
8162;BME280;16778;48.154;15.094;2024-01-30T07:33:21;100634.44;;;-0.21;100.00
8162;BME280;16778;48.154;15.094;2024-01-30T07:35:47;100641.06;;;-0.14;100.00
8162;BME280;16778;48.154;15.094;2024-01-30T07:38:13;100637.69;;;-0.03;100.00
8162;BME280;16778;48.154;15.094;2024-01-30T07:40:39;100639.16;;;0.01;100.00
8162;BME280;16778;48.154;15.094;2024-01-30T07:43:04;100633.19;;;0.10;100.00
8162;BME280;16778;48.154;15.094;2024-01-30T07:45:30;100632.25;;;0.24;100.00
8162;BME280;16778;48.154;15.094;2024-01-30T07:47:59;100635.97;;;0.34;100.00
8162;BME280;16778;48.154;15.094;2024-01-30T07:50:26;100644.13;;;0.45;100.00
8162;BME280;16778;48.154;15.094;2024-01-30T07:52:52;100639.63;;;0.45;100.00
8162;BME280;16778;48.154;15.094;2024-01-30T07:55:48;100647.00;;;0.42;100.00
8162;BME280;16778;48.154;15.094;2024-01-30T07:58:14;100633.53;;;0.56;100.00
8162;BME280;16778;48.154;15.094;2024-01-30T08:00:39;100637.69;;;0.60;100.00
8162;BME280;16778;48.154;15.094;2024-01-30T08:03:05;100643.13;;;0.71;100.00
8162;BME280;16778;48.154;15.094;2024-01-30T08:05:31;100631.88;;;0.79;100.00
8162;BME280;16778;48.154;15.094;2024-01-30T08:07:57;100631.34;;;0.86;100.00
8162;BME280;16778;48.154;15.094;2024-01-30T08:10:23;100627.91;;;0.84;100.00
8162;BME280;16778;48.154;15.094;2024-01-30T08:12:49;100643.75;;;0.87;100.00
8162;BME280;16778;48.154;15.094;2024-01-30T08:15:15;100631.22;;;0.88;100.00
8162;BME280;16778;48.154;15.094;2024-01-30T08:17:41;100640.84;;;0.90;100.00
8162;BME280;16778;48.154;15.094;2024-01-30T08:20:07;100640.63;;;0.93;100.00
8162;BME280;16778;48.154;15.094;2024-01-30T08:22:34;100640.63;;;0.93;100.00
8162;BME280;16778;48.154;15.094;2024-01-30T08:24:59;100648.84;;;1.03;100.00
8162;BME280;16778;48.154;15.094;2024-01-30T08:27:26;100640.84;;;1.03;100.00
8162;BME280;16778;48.154;15.094;2024-01-30T08:29:52;100644.53;;;1.13;100.00
8162;BME280;16778;48.154;15.094;2024-01-30T08:32:17;100644.84;;;1.21;100.00
8162;BME280;16778;48.154;15.094;2024-01-30T08:34:43;100641.56;;;1.17;100.00
8162;BME280;16778;48.154;15.094;2024-01-30T08:37:09;100640.34;;;1.22;100.00
8162;BME280;16778;48.154;15.094;2024-01-30T08:39:35;100653.94;;;1.18;100.00
8162;BME280;16778;48.154;15.094;2024-01-30T08:42:00;100643.38;;;1.17;100.00
8162;BME280;16778;48.154;15.094;2024-01-30T08:44:26;100642.16;;;1.21;100.00
8162;BME280;16778;48.154;15.094;2024-01-30T08:46:53;100640.13;;;1.25;100.00
8162;BME280;16778;48.154;15.094;2024-01-30T08:49:20;100641.28;;;1.33;100.00
8162;BME280;16778;48.154;15.094;2024-01-30T08:51:46;100639.09;;;1.38;100.00
8162;BME280;16778;48.154;15.094;2024-01-30T08:54:12;100638.38;;;1.36;100.00
8162;BME280;16778;48.154;15.094;2024-01-30T08:56:38;100634.09;;;1.34;100.00
8162;BME280;16778;48.154;15.094;2024-01-30T08:59:04;100628.00;;;1.32;100.00
8162;BME280;16778;48.154;15.094;2024-01-30T09:01:30;100629.13;;;1.16;100.00
8162;BME280;16778;48.154;15.094;2024-01-30T09:03:56;100634.47;;;1.16;100.00
8162;BME280;16778;48.154;15.094;2024-01-30T09:06:22;100628.69;;;1.23;100.00
8162;BME280;16778;48.154;15.094;2024-01-30T09:08:48;100629.31;;;1.26;100.00
8162;BME280;16778;48.154;15.094;2024-01-30T09:11:15;100628.75;;;1.34;100.00
8162;BME280;16778;48.154;15.094;2024-01-30T09:13:41;100624.34;;;1.33;100.00
8162;BME280;16778;48.154;15.094;2024-01-30T09:16:07;100630.22;;;1.38;100.00
8162;BME280;16778;48.154;15.094;2024-01-30T09:18:33;100619.81;;;1.46;100.00
8162;BME280;16778;48.154;15.094;2024-01-30T09:20:59;100620.31;;;1.51;100.00
8162;BME280;16778;48.154;15.094;2024-01-30T09:23:28;100621.78;;;1.55;100.00
8162;BME280;16778;48.154;15.094;2024-01-30T09:25:54;100619.91;;;1.44;100.00
8162;BME280;16778;48.154;15.094;2024-01-30T09:28:20;100613.16;;;1.51;100.00
8162;BME280;16778;48.154;15.094;2024-01-30T09:30:46;100607.06;;;1.60;100.00
8162;BME280;16778;48.154;15.094;2024-01-30T09:33:12;100612.78;;;1.56;100.00
8162;BME280;16778;48.154;15.094;2024-01-30T09:35:38;100613.34;;;1.72;100.00
8162;BME280;16778;48.154;15.094;2024-01-30T09:38:04;100615.78;;;1.75;100.00
8162;BME280;16778;48.154;15.094;2024-01-30T09:40:30;100622.47;;;1.69;100.00
8162;BME280;16778;48.154;15.094;2024-01-30T09:42:55;100624.09;;;1.83;100.00
8162;BME280;16778;48.154;15.094;2024-01-30T09:45:25;100615.38;;;1.92;100.00
8162;BME280;16778;48.154;15.094;2024-01-30T09:47:51;100615.63;;;2.00;100.00
8162;BME280;16778;48.154;15.094;2024-01-30T09:50:18;100606.72;;;2.00;100.00
8162;BME280;16778;48.154;15.094;2024-01-30T09:52:45;100601.53;;;2.09;100.00
8162;BME280;16778;48.154;15.094;2024-01-30T09:55:11;100606.88;;;2.09;100.00
8162;BME280;16778;48.154;15.094;2024-01-30T09:57:37;100609.19;;;2.14;100.00
8162;BME280;16778;48.154;15.094;2024-01-30T10:00:06;100612.72;;;2.03;100.00
8162;BME280;16778;48.154;15.094;2024-01-30T10:02:35;100608.00;;;2.18;100.00
8162;BME280;16778;48.154;15.094;2024-01-30T10:05:02;100608.22;;;2.04;100.00
8162;BME280;16778;48.154;15.094;2024-01-30T10:07:28;100602.72;;;2.05;100.00
8162;BME280;16778;48.154;15.094;2024-01-30T10:09:54;100603.31;;;1.98;100.00
8162;BME280;16778;48.154;15.094;2024-01-30T10:12:22;100607.16;;;2.17;100.00
8162;BME280;16778;48.154;15.094;2024-01-30T10:14:48;100603.13;;;2.23;100.00
8162;BME280;16778;48.154;15.094;2024-01-30T10:17:14;100599.00;;;2.19;100.00
8162;BME280;16778;48.154;15.094;2024-01-30T10:19:41;100599.59;;;2.33;100.00
8162;BME280;16778;48.154;15.094;2024-01-30T10:22:07;100593.03;;;2.38;100.00
8162;BME280;16778;48.154;15.094;2024-01-30T10:24:36;100593.91;;;2.38;100.00
8162;BME280;16778;48.154;15.094;2024-01-30T10:27:03;100594.88;;;2.37;100.00
8162;BME280;16778;48.154;15.094;2024-01-30T10:29:31;100596.34;;;2.41;100.00
8162;BME280;16778;48.154;15.094;2024-01-30T10:32:02;100588.88;;;2.45;100.00
8162;BME280;16778;48.154;15.094;2024-01-30T10:34:28;100586.22;;;2.56;100.00
8162;BME280;16778;48.154;15.094;2024-01-30T10:37:10;100582.94;;;2.63;100.00
8162;BME280;16778;48.154;15.094;2024-01-30T10:39:45;100587.94;;;2.68;100.00
8162;BME280;16778;48.154;15.094;2024-01-30T10:42:17;100583.53;;;2.56;100.00
8162;BME280;16778;48.154;15.094;2024-01-30T10:47:39;100576.81;;;2.61;100.00
8162;BME280;16778;48.154;15.094;2024-01-30T10:50:07;100566.38;;;2.58;100.00
8162;BME280;16778;48.154;15.094;2024-01-30T10:52:34;100580.38;;;2.62;100.00
8162;BME280;16778;48.154;15.094;2024-01-30T10:55:01;100574.91;;;2.63;100.00
8162;BME280;16778;48.154;15.094;2024-01-30T10:57:27;100581.94;;;2.75;100.00
8162;BME280;16778;48.154;15.094;2024-01-30T10:59:56;100572.06;;;2.87;100.00
8162;BME280;16778;48.154;15.094;2024-01-30T11:02:24;100576.94;;;2.93;100.00
8162;BME280;16778;48.154;15.094;2024-01-30T11:04:55;100565.81;;;2.86;100.00
8162;BME280;16778;48.154;15.094;2024-01-30T11:07:29;100574.97;;;2.84;100.00
8162;BME280;16778;48.154;15.094;2024-01-30T11:12:25;100572.19;;;2.85;100.00
8162;BME280;16778;48.154;15.094;2024-01-30T11:15:10;100567.75;;;3.07;100.00
8162;BME280;16778;48.154;15.094;2024-01-30T11:17:41;100567.53;;;2.99;100.00
8162;BME280;16778;48.154;15.094;2024-01-30T11:20:29;100560.63;;;2.74;100.00
8162;BME280;16778;48.154;15.094;2024-01-30T11:22:59;100560.63;;;2.74;100.00
8162;BME280;16778;48.154;15.094;2024-01-30T11:25:27;100566.44;;;2.90;100.00
8162;BME280;16778;48.154;15.094;2024-01-30T11:27:55;100562.16;;;2.99;100.00
8162;BME280;16778;48.154;15.094;2024-01-30T11:30:26;100558.47;;;3.11;100.00
8162;BME280;16778;48.154;15.094;2024-01-30T11:33:04;100566.06;;;3.06;100.00
8162;BME280;16778;48.154;15.094;2024-01-30T11:38:08;100561.81;;;2.81;100.00
8162;BME280;16778;48.154;15.094;2024-01-30T11:40:36;100554.38;;;2.84;100.00
8162;BME280;16778;48.154;15.094;2024-01-30T11:43:05;100554.84;;;2.89;100.00
8162;BME280;16778;48.154;15.094;2024-01-30T11:45:32;100558.97;;;3.05;100.00
8162;BME280;16778;48.154;15.094;2024-01-30T11:47:59;100556.50;;;3.13;100.00
8162;BME280;16778;48.154;15.094;2024-01-30T11:50:30;100551.88;;;3.15;100.00
8162;BME280;16778;48.154;15.094;2024-01-30T11:52:56;100545.03;;;3.22;100.00
8162;BME280;16778;48.154;15.094;2024-01-30T11:55:23;100544.63;;;2.83;100.00
8162;BME280;16778;48.154;15.094;2024-01-30T11:57:49;100543.56;;;2.64;100.00
8162;BME280;16778;48.154;15.094;2024-01-30T12:00:19;100536.34;;;2.64;100.00
8162;BME280;16778;48.154;15.094;2024-01-30T12:02:51;100533.91;;;2.83;100.00
8162;BME280;16778;48.154;15.094;2024-01-30T12:05:24;100540.59;;;2.89;100.00
8162;BME280;16778;48.154;15.094;2024-01-30T12:07:51;100536.19;;;2.99;100.00
8162;BME280;16778;48.154;15.094;2024-01-30T12:10:17;100525.94;;;2.93;100.00
8162;BME280;16778;48.154;15.094;2024-01-30T12:12:50;100525.97;;;2.82;100.00
8162;BME280;16778;48.154;15.094;2024-01-30T12:15:16;100512.78;;;2.90;100.00
8162;BME280;16778;48.154;15.094;2024-01-30T12:17:42;100516.06;;;2.93;100.00
8162;BME280;16778;48.154;15.094;2024-01-30T12:20:13;100515.97;;;2.73;100.00
8162;BME280;16778;48.154;15.094;2024-01-30T12:22:44;100509.84;;;2.93;100.00
8162;BME280;16778;48.154;15.094;2024-01-30T12:25:12;100510.91;;;3.02;100.00
8162;BME280;16778;48.154;15.094;2024-01-30T12:27:39;100515.88;;;3.06;100.00
8162;BME280;16778;48.154;15.094;2024-01-30T12:30:12;100505.00;;;2.76;100.00
8162;BME280;16778;48.154;15.094;2024-01-30T12:32:44;100510.09;;;2.79;100.00
8162;BME280;16778;48.154;15.094;2024-01-30T12:35:18;100512.78;;;2.79;100.00
8162;BME280;16778;48.154;15.094;2024-01-30T12:37:46;100507.03;;;2.95;100.00
8162;BME280;16778;48.154;15.094;2024-01-30T12:40:14;100500.44;;;2.99;100.00
8162;BME280;16778;48.154;15.094;2024-01-30T12:42:45;100495.88;;;3.10;100.00
8162;BME280;16778;48.154;15.094;2024-01-30T12:45:14;100501.91;;;3.03;100.00
8162;BME280;16778;48.154;15.094;2024-01-30T12:47:42;100493.69;;;3.04;100.00
8162;BME280;16778;48.154;15.094;2024-01-30T12:50:07;100500.22;;;2.90;100.00